Terminal Aerodrome Forecast
Issued by NWS

Home | Current Version | Previous Version | Text Only | Print | Product List | Glossary On
Versions: 1 2 3 4 5 6 7 8 9 10 11 12 13 14 15
000
FTUS42 KTBW 021141
TAFPGD
TAF
KPGD 021141Z 0212/0312 12003KT P6SM FEW015 BKN250
     FM021500 20006KT P6SM SCT025 SCT250
     FM022000 27008KT P6SM VCTS SCT035CB BKN250
     FM030100 VRB03KT P6SM SCT250=

USA.gov is the U.S. government's official web portal to all federal, state and local government web resources and services.